Time;durP1;ratioP1;P1;durP2;ratioP2;P2;SDS_P1;SDS_P2;PMS_P1;PMS_P2;Temp;Humidity;BMP_temperature;BMP_pressure;BME280_temperature;BME280_humidity;BME280_pressure;Samples;Min_cycle;Max_cycle;Signal;HPM_P1;HPM_P2
2022/09/07 00:01:36;;;;;;;6.55;5.50;;;;;;;;;;4976643;28;20147;-90
2022/09/07 00:04:08;;;;;;;8.93;5.63;;;;;;;;;;4993420;28;20023;-88
2022/09/07 00:06:34;;;;;;;10.13;6.20;;;;;;;;;;4985646;28;20034;-89
2022/09/07 00:09:03;;;;;;;8.07;5.72;;;;;;;;;;4966136;28;20034;-89
2022/09/07 00:11:29;;;;;;;9.48;6.00;;;;;;;;;;4983338;28;20023;-86
2022/09/07 00:13:56;;;;;;;7.68;5.57;;;;;;;;;;4991545;28;20074;-81
2022/09/07 00:16:26;;;;;;;10.65;6.13;;;;;;;;;;4982666;28;20519;-78
2022/09/07 00:18:56;;;;;;;9.02;6.03;;;;;;;;;;4984456;28;20066;-83
2022/09/07 00:21:23;;;;;;;10.32;5.18;;;;;;;;;;4984142;28;20042;-81
2022/09/07 00:23:49;;;;;;;9.00;6.15;;;;;;;;;;4988625;28;20130;-87
2022/09/07 00:26:17;;;;;;;9.27;5.47;;;;;;;;;;4985452;28;20023;-88
2022/09/07 00:28:43;;;;;;;7.80;5.45;;;;;;;;;;4992740;28;20022;-86
2022/09/07 00:31:14;;;;;;;7.20;5.43;;;;;;;;;;4993212;28;20022;-86
2022/09/07 00:33:40;;;;;;;8.52;6.03;;;;;;;;;;4992619;28;20042;-89
2022/09/07 00:36:06;;;;;;;7.13;6.00;;;;;;;;;;4992460;28;20420;-89
2022/09/07 00:38:32;;;;;;;6.90;5.70;;;;;;;;;;4986932;28;20109;-87
2022/09/07 00:40:58;;;;;;;8.70;5.88;;;;;;;;;;4992010;28;20027;-89
2022/09/07 00:43:30;;;;;;;8.27;5.70;;;;;;;;;;4967954;28;21110;-87
2022/09/07 00:45:56;;;;;;;6.50;5.40;;;;;;;;;;4977098;28;20026;-88
2022/09/07 00:48:23;;;;;;;9.73;5.65;;;;;;;;;;4991076;28;20440;-86
2022/09/07 00:50:55;;;;;;;9.70;5.63;;;;;;;;;;4992705;28;20065;-85
2022/09/07 00:53:24;;;;;;;6.60;5.60;;;;;;;;;;4992659;28;20095;-81
2022/09/07 00:55:51;;;;;;;8.10;5.70;;;;;;;;;;4975946;28;20159;-88
2022/09/07 00:58:19;;;;;;;7.53;5.72;;;;;;;;;;4988418;28;20029;-87
2022/09/07 01:00:46;;;;;;;8.45;5.85;;;;;;;;;;4992814;28;20055;-88
2022/09/07 01:03:13;;;;;;;7.85;5.55;;;;;;;;;;4992338;28;20058;-87
2022/09/07 01:05:47;;;;;;;9.80;6.30;;;;;;;;;;4992643;28;20023;-83
2022/09/07 01:08:13;;;;;;;9.63;6.68;;;;;;;;;;4997881;28;20521;-88
2022/09/07 01:10:39;;;;;;;10.05;6.63;;;;;;;;;;4995926;28;20530;-87
2022/09/07 01:13:06;;;;;;;10.38;6.95;;;;;;;;;;4995196;28;20027;-86
2022/09/07 01:15:40;;;;;;;10.57;6.93;;;;;;;;;;4978539;28;20030;-88
2022/09/07 01:18:10;;;;;;;9.63;7.03;;;;;;;;;;4987453;28;20023;-86
2022/09/07 01:20:39;;;;;;;11.15;7.30;;;;;;;;;;4997706;28;20069;-86
2022/09/07 01:23:16;;;;;;;11.98;8.70;;;;;;;;;;5007221;28;20053;-81
2022/09/07 01:26:02;;;;;;;11.30;8.98;;;;;;;;;;5013517;28;20396;-76
2022/09/07 01:28:34;;;;;;;11.82;9.00;;;;;;;;;;5000899;28;20104;-67
2022/09/07 01:31:13;;;;;;;11.40;8.67;;;;;;;;;;5000096;28;20015;-69
2022/09/07 01:33:56;;;;;;;10.45;7.95;;;;;;;;;;5001839;28;20034;-68
2022/09/07 01:36:28;;;;;;;10.80;8.35;;;;;;;;;;5001937;28;20018;-67
2022/09/07 01:38:55;;;;;;;9.98;7.50;;;;;;;;;;5015429;28;20110;-67
2022/09/07 01:41:21;;;;;;;11.18;7.63;;;;;;;;;;5188887;23;20038;-68
2022/09/07 01:43:51;;;;;;;10.43;7.72;;;;;;;;;;4999240;28;20047;-67
2022/09/07 01:46:39;;;;;;;8.93;7.53;;;;;;;;;;5029796;28;20089;-68
2022/09/07 01:49:25;;;;;;;10.90;7.40;;;;;;;;;;5013727;28;20023;-73
2022/09/07 01:51:57;;;;;;;10.25;6.75;;;;;;;;;;5000882;28;20039;-83
2022/09/07 01:54:38;;;;;;;11.73;7.70;;;;;;;;;;4996955;28;20056;-84
2022/09/07 01:57:07;;;;;;;7.82;6.40;;;;;;;;;;5009318;28;20026;-75
2022/09/07 01:59:35;;;;;;;8.50;6.53;;;;;;;;;;5035961;28;20026;-74
2022/09/07 02:02:15;;;;;;;7.53;6.60;;;;;;;;;;5036786;28;20033;-76
2022/09/07 02:07:19;;;;;;;7.93;6.57;;;;;;;;;;5239299;23;20741;-83
2022/09/07 02:09:45;;;;;;;8.32;6.53;;;;;;;;;;4988214;28;20033;-75
2022/09/07 02:12:19;;;;;;;8.55;7.03;;;;;;;;;;4984641;28;20031;-74
2022/09/07 02:14:50;;;;;;;9.18;6.70;;;;;;;;;;4971566;28;20035;-70
2022/09/07 02:17:19;;;;;;;8.65;6.80;;;;;;;;;;4964572;28;20358;-70
2022/09/07 02:19:50;;;;;;;8.00;7.00;;;;;;;;;;4978472;28;20027;-76
2022/09/07 02:22:18;;;;;;;8.25;6.93;;;;;;;;;;4965176;28;20102;-79
2022/09/07 02:24:47;;;;;;;10.65;6.35;;;;;;;;;;4977544;28;20058;-69
2022/09/07 02:27:17;;;;;;;9.23;6.68;;;;;;;;;;4979646;28;20039;-72
2022/09/07 02:29:43;;;;;;;10.10;6.90;;;;;;;;;;4989200;28;20033;-68
2022/09/07 02:32:09;;;;;;;10.85;7.15;;;;;;;;;;4969088;28;20020;-68
2022/09/07 02:34:35;;;;;;;9.35;7.03;;;;;;;;;;4949075;28;20051;-68
2022/09/07 02:37:04;;;;;;;10.82;7.18;;;;;;;;;;4964667;28;20110;-68
2022/09/07 02:39:30;;;;;;;10.75;7.57;;;;;;;;;;4967273;28;20038;-68
2022/09/07 02:41:58;;;;;;;9.15;6.90;;;;;;;;;;4966840;28;20059;-68
2022/09/07 02:44:26;;;;;;;9.38;7.78;;;;;;;;;;4965570;28;20039;-68
2022/09/07 02:47:12;;;;;;;12.00;7.13;;;;;;;;;;4979056;28;20043;-68
2022/09/07 02:49:53;;;;;;;9.57;7.38;;;;;;;;;;4986656;28;20023;-67
2022/09/07 02:52:22;;;;;;;8.73;6.53;;;;;;;;;;4967393;28;20027;-68
2022/09/07 02:54:57;;;;;;;11.25;7.22;;;;;;;;;;4979524;28;20039;-68
2022/09/07 02:57:42;;;;;;;10.20;7.40;;;;;;;;;;4970140;28;20090;-68
2022/09/07 03:00:14;;;;;;;8.10;6.63;;;;;;;;;;4971959;28;20106;-68
2022/09/07 03:03:00;;;;;;;14.15;7.82;;;;;;;;;;4967338;29;20039;-68
2022/09/07 03:05:35;;;;;;;9.52;6.80;;;;;;;;;;4966433;28;20389;-67
2022/09/07 03:08:16;;;;;;;10.38;7.18;;;;;;;;;;4966622;28;20053;-68
2022/09/07 03:10:45;;;;;;;9.95;6.43;;;;;;;;;;4965994;28;20035;-68
2022/09/07 03:13:24;;;;;;;10.38;7.22;;;;;;;;;;4968989;29;20620;-68
2022/09/07 03:15:51;;;;;;;12.05;7.13;;;;;;;;;;4970380;29;20030;-68
2022/09/07 03:18:17;;;;;;;10.48;7.97;;;;;;;;;;4967559;28;20469;-68
2022/09/07 03:20:43;;;;;;;10.15;7.95;;;;;;;;;;4967848;28;20115;-68
2022/09/07 03:23:09;;;;;;;10.98;8.07;;;;;;;;;;4972877;28;20015;-68
2022/09/07 03:25:35;;;;;;;11.52;8.35;;;;;;;;;;4973187;28;20107;-69
2022/09/07 03:28:01;;;;;;;15.25;7.75;;;;;;;;;;4969778;28;20035;-68
2022/09/07 03:30:27;;;;;;;10.63;7.43;;;;;;;;;;4973621;28;20031;-68
2022/09/07 03:32:53;;;;;;;13.18;7.97;;;;;;;;;;4968171;29;20031;-68
2022/09/07 03:35:22;;;;;;;12.10;7.70;;;;;;;;;;4969290;28;20031;-68
2022/09/07 03:37:48;;;;;;;9.95;7.63;;;;;;;;;;4964768;29;20051;-68
2022/09/07 03:40:15;;;;;;;13.77;9.82;;;;;;;;;;4964723;28;20031;-68
2022/09/07 03:42:41;;;;;;;10.57;8.07;;;;;;;;;;4974447;28;20019;-69
2022/09/07 03:45:08;;;;;;;11.70;7.90;;;;;;;;;;4964789;29;20175;-68
2022/09/07 03:47:35;;;;;;;10.48;8.07;;;;;;;;;;4946678;29;20046;-68
2022/09/07 03:50:01;;;;;;;10.93;7.93;;;;;;;;;;4983920;28;20042;-68
2022/09/07 03:52:27;;;;;;;11.25;8.45;;;;;;;;;;4980094;28;20126;-67
2022/09/07 03:54:53;;;;;;;10.75;7.90;;;;;;;;;;4966811;28;20035;-68
2022/09/07 03:57:19;;;;;;;10.02;7.85;;;;;;;;;;4965084;28;20023;-68
2022/09/07 03:59:46;;;;;;;11.65;8.23;;;;;;;;;;4971526;28;20027;-67
2022/09/07 04:02:12;;;;;;;14.35;7.80;;;;;;;;;;4985835;28;20027;-68
2022/09/07 04:04:38;;;;;;;11.88;7.88;;;;;;;;;;4983224;28;20038;-68
2022/09/07 04:07:05;;;;;;;9.73;7.40;;;;;;;;;;4964542;28;20095;-75
2022/09/07 04:09:31;;;;;;;9.85;7.38;;;;;;;;;;4970724;28;20066;-74
2022/09/07 04:11:57;;;;;;;10.63;6.80;;;;;;;;;;4966879;28;20035;-73
2022/09/07 04:14:24;;;;;;;11.27;7.20;;;;;;;;;;4962080;29;20045;-74
2022/09/07 04:16:50;;;;;;;9.07;7.18;;;;;;;;;;4971940;28;20066;-74
2022/09/07 04:19:16;;;;;;;8.98;7.00;;;;;;;;;;4969400;28;20027;-74
2022/09/07 04:21:43;;;;;;;9.20;7.32;;;;;;;;;;4968430;28;20026;-74
2022/09/07 04:24:09;;;;;;;9.23;7.03;;;;;;;;;;4972441;28;20039;-73
2022/09/07 04:26:36;;;;;;;8.60;6.80;;;;;;;;;;4951260;29;20039;-72
2022/09/07 04:29:02;;;;;;;10.18;6.97;;;;;;;;;;4966116;29;20051;-74
2022/09/07 04:31:31;;;;;;;8.43;6.78;;;;;;;;;;4960862;28;20065;-72
2022/09/07 04:33:57;;;;;;;11.68;7.22;;;;;;;;;;4969126;28;20035;-72
2022/09/07 04:36:23;;;;;;;15.27;7.82;;;;;;;;;;4968097;28;20030;-72
2022/09/07 04:38:58;;;;;;;13.95;7.70;;;;;;;;;;4957803;28;20036;-70
2022/09/07 04:41:26;;;;;;;11.38;7.57;;;;;;;;;;4951685;28;20478;-70
2022/09/07 04:43:56;;;;;;;12.20;7.60;;;;;;;;;;4965340;28;20078;-69
2022/09/07 04:46:27;;;;;;;10.93;7.00;;;;;;;;;;4967896;28;20394;-70
2022/09/07 04:48:54;;;;;;;10.43;7.28;;;;;;;;;;4974719;28;20051;-71
2022/09/07 04:51:21;;;;;;;9.50;6.80;;;;;;;;;;4970853;28;20023;-71
2022/09/07 04:53:51;;;;;;;13.82;7.85;;;;;;;;;;4969796;28;20081;-71
2022/09/07 04:56:17;;;;;;;11.23;7.32;;;;;;;;;;4975932;28;20539;-76
2022/09/07 04:58:44;;;;;;;12.10;6.85;;;;;;;;;;4955767;28;20031;-72
2022/09/07 05:01:12;;;;;;;12.93;7.10;;;;;;;;;;4962087;28;20035;-70
2022/09/07 05:03:41;;;;;;;11.27;6.88;;;;;;;;;;4965364;28;20027;-71
2022/09/07 05:06:08;;;;;;;9.43;6.63;;;;;;;;;;4958884;28;20137;-76
2022/09/07 05:08:38;;;;;;;9.80;7.07;;;;;;;;;;4969952;28;20089;-76
2022/09/07 05:11:06;;;;;;;11.52;7.35;;;;;;;;;;4965058;28;20078;-81
2022/09/07 05:16:54;;;;;;;10.23;7.03;;;;;;;;;;4942530;29;20034;-81
2022/09/07 05:19:44;;;;;;;12.20;7.70;;;;;;;;;;4977811;28;20035;-83
2022/09/07 05:22:13;;;;;;;8.57;7.05;;;;;;;;;;4969496;28;20067;-85
2022/09/07 05:24:40;;;;;;;10.07;6.97;;;;;;;;;;4952752;28;20023;-75
2022/09/07 05:27:09;;;;;;;9.70;6.30;;;;;;;;;;4960223;28;20035;-83
2022/09/07 05:29:35;;;;;;;10.55;6.25;;;;;;;;;;4957013;28;20102;-84
2022/09/07 05:32:01;;;;;;;9.07;5.97;;;;;;;;;;4969910;28;20038;-71
2022/09/07 05:34:27;;;;;;;8.68;6.00;;;;;;;;;;4962369;28;20130;-79
2022/09/07 05:36:53;;;;;;;9.80;6.20;;;;;;;;;;4959924;28;20023;-76
2022/09/07 05:39:20;;;;;;;8.88;6.65;;;;;;;;;;4951102;28;20047;-79
2022/09/07 05:41:46;;;;;;;11.00;7.15;;;;;;;;;;4959536;28;20472;-74
2022/09/07 05:44:13;;;;;;;10.10;6.60;;;;;;;;;;4970623;28;20122;-75
2022/09/07 05:46:39;;;;;;;10.27;6.55;;;;;;;;;;4965990;28;20019;-76
2022/09/07 05:49:06;;;;;;;11.38;6.47;;;;;;;;;;4959469;28;20023;-76
2022/09/07 05:51:33;;;;;;;9.35;6.57;;;;;;;;;;4959404;28;20019;-77
2022/09/07 05:53:59;;;;;;;9.75;6.80;;;;;;;;;;4967283;28;20049;-74
2022/09/07 05:56:28;;;;;;;9.02;7.20;;;;;;;;;;4964449;28;20437;-83
2022/09/07 05:58:54;;;;;;;12.07;7.07;;;;;;;;;;4955322;28;20073;-79
2022/09/07 06:01:20;;;;;;;17.88;7.38;;;;;;;;;;4956119;28;20050;-83
2022/09/07 06:03:46;;;;;;;14.20;7.93;;;;;;;;;;4955200;28;20035;-79
2022/09/07 06:06:17;;;;;;;10.13;6.45;;;;;;;;;;4967912;28;20054;-81
2022/09/07 06:08:44;;;;;;;11.07;7.55;;;;;;;;;;4957674;28;20057;-72
2022/09/07 06:14:21;;;;;;;9.60;7.30;;;;;;;;;;4896175;29;20127;-71
2022/09/07 06:16:47;;;;;;;11.30;7.38;;;;;;;;;;4896732;29;20033;-78
2022/09/07 06:19:13;;;;;;;11.27;6.78;;;;;;;;;;4902350;29;20132;-76
2022/09/07 06:21:39;;;;;;;10.10;7.63;;;;;;;;;;4913870;29;20568;-78
2022/09/07 06:24:06;;;;;;;12.85;7.40;;;;;;;;;;4910641;29;20419;-75
2022/09/07 06:26:34;;;;;;;13.82;6.97;;;;;;;;;;4915230;29;20028;-79
2022/09/07 06:29:02;;;;;;;11.65;7.20;;;;;;;;;;4906682;29;20069;-75
2022/09/07 06:31:28;;;;;;;11.85;6.65;;;;;;;;;;4912255;29;20024;-79
2022/09/07 06:36:55;;;;;;;12.68;6.60;;;;;;;;;;4914522;29;20036;-73
2022/09/07 06:39:52;;;;;;;;;;;;;;;;;;;;;
2022/09/07 06:42:32;;;;;;;11.48;6.93;;;;;;;;;;4884922;29;20502;-72
2022/09/07 06:45:11;;;;;;;;;;;;;;;;;;;;;
2022/09/07 06:48:10;;;;;;;13.07;6.95;;;;;;;;;;4889085;29;20046;-72
2022/09/07 06:50:49;;;;;;;;;;;;;;;;;;;;;
2022/09/07 06:53:22;;;;;;;9.63;7.05;;;;;;;;;;4856285;29;20038;-71
2022/09/07 06:55:48;;;;;;;10.65;7.10;;;;;;;;;;4857300;29;20051;-71
2022/09/07 06:58:14;;;;;;;14.15;7.40;;;;;;;;;;4857007;29;20041;-76
2022/09/07 07:00:43;;;;;;;9.85;6.90;;;;;;;;;;4855100;29;20045;-74
2022/09/07 07:03:09;;;;;;;14.77;6.97;;;;;;;;;;4857667;29;20105;-77
2022/09/07 07:05:35;;;;;;;10.00;6.60;;;;;;;;;;4857479;29;20038;-72
2022/09/07 07:08:01;;;;;;;10.18;6.78;;;;;;;;;;4856667;29;20045;-72
2022/09/07 07:10:27;;;;;;;12.15;6.70;;;;;;;;;;4856626;29;20049;-75
2022/09/07 07:12:55;;;;;;;11.27;6.97;;;;;;;;;;4856977;29;20112;-72
2022/09/07 07:15:22;;;;;;;12.90;6.80;;;;;;;;;;4861801;29;20063;-83
2022/09/07 07:17:48;;;;;;;12.25;7.00;;;;;;;;;;4876832;29;20111;-85
2022/09/07 07:20:40;;;;;;;10.18;7.03;;;;;;;;;;4891723;29;20037;-83
2022/09/07 07:23:27;;;;;;;;;;;;;;;;;;;;;
2022/09/07 07:26:25;;;;;;;11.27;7.20;;;;;;;;;;4883733;29;20549;-76
2022/09/07 07:28:53;;;;;;;13.50;7.35;;;;;;;;;;4945711;28;20045;-83
2022/09/07 07:31:20;;;;;;;10.20;7.28;;;;;;;;;;4958231;28;20046;-85
2022/09/07 07:34:28;;;;;;;9.18;7.50;;;;;;;;;;4959133;28;20105;-73
2022/09/07 07:36:54;;;;;;;9.10;7.57;;;;;;;;;;4924399;29;20029;-75
2022/09/07 07:39:46;;;;;;;10.65;8.05;;;;;;;;;;4916484;29;20063;-79
2022/09/07 07:42:23;;;;;;;8.02;7.00;;;;;;;;;;4928390;29;20054;-76
2022/09/07 07:45:36;;;;;;;14.00;7.50;;;;;;;;;;4910944;29;20072;-72
2022/09/07 07:47:40;;;;;;;9.50;7.57;;;;;;;;;;4896521;29;20654;-70
2022/09/07 07:50:07;;;;;;;8.93;7.03;;;;;;;;;;4903567;29;20078;-71
2022/09/07 07:52:41;;;;;;;9.38;7.35;;;;;;;;;;4919430;29;20036;-69
2022/09/07 07:55:11;;;;;;;9.13;7.25;;;;;;;;;;4897257;29;20055;-71
2022/09/07 07:57:37;;;;;;;12.00;6.57;;;;;;;;;;4907463;29;20055;-70
2022/09/07 08:00:05;;;;;;;9.40;6.72;;;;;;;;;;4915766;29;20052;-70
2022/09/07 08:02:31;;;;;;;9.77;6.05;;;;;;;;;;4913172;29;20486;-72
2022/09/07 08:04:57;;;;;;;13.02;6.78;;;;;;;;;;4915031;29;20456;-74
2022/09/07 08:07:23;;;;;;;12.68;6.45;;;;;;;;;;4911309;29;20039;-73
2022/09/07 08:09:49;;;;;;;9.82;6.85;;;;;;;;;;4917097;29;20522;-69
2022/09/07 08:12:17;;;;;;;20.48;6.78;;;;;;;;;;4922546;29;20059;-71
2022/09/07 08:14:43;;;;;;;10.65;6.55;;;;;;;;;;4963353;28;20047;-75
2022/09/07 08:17:33;;;;;;;35.25;13.68;;;;;;;;;;4956922;28;20034;-72
2022/09/07 08:20:08;;;;;;;11.88;6.38;;;;;;;;;;4902610;29;20082;-72
2022/09/07 08:22:57;;;;;;;12.02;6.47;;;;;;;;;;4890748;29;20077;-69
2022/09/07 08:25:24;;;;;;;13.52;6.45;;;;;;;;;;4892178;29;20488;-69
2022/09/07 08:27:50;;;;;;;13.00;6.57;;;;;;;;;;4892713;29;20113;-73
2022/09/07 08:30:16;;;;;;;10.07;6.95;;;;;;;;;;4901266;29;20088;-72
2022/09/07 08:32:42;;;;;;;10.25;6.88;;;;;;;;;;4899373;29;20040;-70
2022/09/07 08:35:08;;;;;;;13.38;7.35;;;;;;;;;;4907065;29;20491;-77
2022/09/07 08:37:34;;;;;;;11.55;6.95;;;;;;;;;;4903656;29;20041;-74
2022/09/07 08:40:00;;;;;;;12.32;7.25;;;;;;;;;;4902592;29;20040;-82
2022/09/07 08:42:35;;;;;;;10.75;7.18;;;;;;;;;;4911522;29;20043;-77
2022/09/07 08:45:24;;;;;;;14.43;7.35;;;;;;;;;;4906584;29;20048;-75
2022/09/07 08:47:51;;;;;;;10.02;6.90;;;;;;;;;;4898963;29;20032;-72
2022/09/07 08:50:24;;;;;;;9.10;6.57;;;;;;;;;;4901072;29;20086;-74
2022/09/07 08:52:56;;;;;;;12.02;7.25;;;;;;;;;;4909460;29;20055;-75
2022/09/07 08:55:30;;;;;;;11.07;7.07;;;;;;;;;;4888220;29;20740;-73
2022/09/07 08:58:02;;;;;;;9.27;6.60;;;;;;;;;;4945632;28;20047;-73
2022/09/07 09:00:28;;;;;;;12.30;6.85;;;;;;;;;;4965853;28;20077;-73
2022/09/07 09:02:57;;;;;;;9.55;7.00;;;;;;;;;;4950896;28;20084;-73
2022/09/07 09:05:29;;;;;;;10.52;7.40;;;;;;;;;;4947282;28;20035;-73
2022/09/07 09:08:24;;;;;;;11.97;6.40;;;;;;;;;;4946163;28;20047;-74
2022/09/07 09:10:54;;;;;;;11.75;6.85;;;;;;;;;;4903166;29;20095;-74
2022/09/07 09:13:41;;;;;;;12.30;7.07;;;;;;;;;;4916859;29;20398;-74
2022/09/07 09:16:14;;;;;;;12.07;6.68;;;;;;;;;;4910521;29;20099;-73
2022/09/07 09:18:40;;;;;;;;;;;;;;;;;;4917968;29;20021;-71
2022/09/07 09:21:12;;;;;;;12.90;6.50;;;;;;;;;;4908217;29;19918;-71
2022/09/07 09:23:40;;;;;;;10.88;6.80;;;;;;;;;;4914090;29;20067;-70
2022/09/07 09:26:14;;;;;;;9.80;6.72;;;;;;;;;;4913759;29;20028;-79
2022/09/07 09:28:40;;;;;;;11.73;7.00;;;;;;;;;;4914993;29;20544;-73
2022/09/07 09:31:14;;;;;;;11.48;6.82;;;;;;;;;;4902199;29;20028;-76
2022/09/07 09:33:41;;;;;;;8.77;6.95;;;;;;;;;;4912890;29;21708;-78
2022/09/07 09:36:22;;;;;;;35.45;8.18;;;;;;;;;;4919347;29;20443;-78
2022/09/07 09:38:48;;;;;;;11.82;7.03;;;;;;;;;;4919221;29;20033;-79
2022/09/07 09:41:15;;;;;;;15.95;7.15;;;;;;;;;;4906497;29;20527;-79
2022/09/07 09:43:45;;;;;;;12.70;7.65;;;;;;;;;;4903549;29;20064;-80
2022/09/07 09:46:17;;;;;;;15.45;7.78;;;;;;;;;;4925721;28;20034;-79
2022/09/07 09:48:49;;;;;;;10.43;7.10;;;;;;;;;;4965996;28;20433;-77
2022/09/07 09:51:15;;;;;;;8.70;6.30;;;;;;;;;;4954796;28;20064;-78
2022/09/07 09:53:50;;;;;;;12.35;6.95;;;;;;;;;;4956641;28;20020;-77
2022/09/07 09:56:21;;;;;;;12.45;7.25;;;;;;;;;;4955966;28;20031;-77
2022/09/07 09:58:48;;;;;;;10.10;6.97;;;;;;;;;;4955019;28;20027;-87
2022/09/07 10:01:21;;;;;;;11.70;6.80;;;;;;;;;;4952806;28;20503;-84
2022/09/07 10:03:47;;;;;;;14.02;7.22;;;;;;;;;;4965550;28;20058;-88
2022/09/07 10:06:15;;;;;;;8.90;7.35;;;;;;;;;;4968045;28;20113;-87
2022/09/07 10:08:51;;;;;;;9.38;7.03;;;;;;;;;;4955189;28;20088;-90
2022/09/07 10:11:18;;;;;;;14.73;7.70;;;;;;;;;;4949866;28;20128;-87
2022/09/07 10:13:45;;;;;;;10.68;7.22;;;;;;;;;;4947395;28;20046;-88
2022/09/07 10:16:11;;;;;;;11.52;7.03;;;;;;;;;;4957045;28;20045;-88
2022/09/07 10:18:55;;;;;;;10.88;7.50;;;;;;;;;;4961172;28;20027;-88
2022/09/07 10:21:28;;;;;;;10.10;7.55;;;;;;;;;;4953699;28;20031;-88
2022/09/07 10:24:03;;;;;;;9.13;6.80;;;;;;;;;;4952704;28;21897;-89
2022/09/07 10:26:31;;;;;;;9.05;7.25;;;;;;;;;;4946481;28;20039;-90
2022/09/07 10:29:06;;;;;;;11.05;7.07;;;;;;;;;;4960029;28;20023;-88
2022/09/07 10:31:34;;;;;;;11.20;6.95;;;;;;;;;;4958445;28;20019;-88
2022/09/07 10:34:12;;;;;;;11.07;7.00;;;;;;;;;;4974199;28;20023;-88
2022/09/07 10:36:53;;;;;;;12.77;7.22;;;;;;;;;;4968643;28;20037;-81
2022/09/07 10:39:25;;;;;;;9.52;7.00;;;;;;;;;;4960320;28;20030;-76
2022/09/07 10:42:14;;;;;;;10.80;6.70;;;;;;;;;;4956704;28;20556;-86
2022/09/07 10:44:41;;;;;;;12.80;7.45;;;;;;;;;;4956520;28;20039;-87
2022/09/07 10:47:07;;;;;;;10.70;7.47;;;;;;;;;;4949760;28;20097;-88
2022/09/07 10:49:46;;;;;;;9.60;7.45;;;;;;;;;;4949160;28;20402;-92
2022/09/07 10:52:34;;;;;;;10.35;7.13;;;;;;;;;;4948560;28;20053;-88
2022/09/07 10:55:00;;;;;;;8.13;6.85;;;;;;;;;;4953195;28;20050;-88
2022/09/07 10:57:38;;;;;;;13.13;7.07;;;;;;;;;;4956874;28;20134;-91
2022/09/07 11:00:11;;;;;;;10.27;7.03;;;;;;;;;;4944966;28;20069;-83
2022/09/07 11:02:46;;;;;;;17.25;7.90;;;;;;;;;;4964342;28;20544;-75
2022/09/07 11:05:18;;;;;;;14.82;7.57;;;;;;;;;;4962575;28;20118;-82
2022/09/07 11:07:51;;;;;;;8.37;7.47;;;;;;;;;;4954457;28;20130;-82
2022/09/07 11:10:17;;;;;;;8.93;6.57;;;;;;;;;;4969677;28;20023;-84
2022/09/07 11:12:44;;;;;;;14.07;7.28;;;;;;;;;;4964895;28;20105;-81
2022/09/07 11:15:13;;;;;;;8.60;7.05;;;;;;;;;;4961977;28;20035;-85
2022/09/07 11:17:42;;;;;;;7.72;6.47;;;;;;;;;;4962559;28;20032;-76
2022/09/07 11:20:23;;;;;;;10.23;7.57;;;;;;;;;;4955266;28;20046;-88
2022/09/07 11:22:52;;;;;;;9.00;7.60;;;;;;;;;;4964561;28;20105;-79
2022/09/07 11:25:23;;;;;;;10.30;8.05;;;;;;;;;;4953677;28;20039;-86
2022/09/07 11:27:55;;;;;;;12.23;7.32;;;;;;;;;;4961226;28;20026;-89
2022/09/07 11:30:23;;;;;;;9.75;8.05;;;;;;;;;;4957984;28;20026;-85
2022/09/07 11:32:57;;;;;;;10.30;7.13;;;;;;;;;;4959996;28;20050;-81
2022/09/07 11:35:31;;;;;;;12.52;7.38;;;;;;;;;;4953788;28;20426;-86
2022/09/07 11:38:02;;;;;;;10.93;8.50;;;;;;;;;;4943858;28;20054;-85
2022/09/07 11:40:38;;;;;;;18.60;7.57;;;;;;;;;;4950925;28;20043;-81
2022/09/07 11:43:24;;;;;;;11.20;6.90;;;;;;;;;;4946417;28;20503;-79
2022/09/07 11:45:59;;;;;;;9.88;6.75;;;;;;;;;;4955516;28;20031;-77
2022/09/07 11:48:34;;;;;;;8.32;6.57;;;;;;;;;;4951146;28;20059;-86
2022/09/07 11:51:03;;;;;;;31.27;24.67;;;;;;;;;;4947380;28;20059;-82
2022/09/07 11:53:32;;;;;;;11.35;7.40;;;;;;;;;;4951527;28;20102;-85
2022/09/07 11:56:00;;;;;;;13.43;7.22;;;;;;;;;;4955355;28;20050;-87
2022/09/07 11:58:46;;;;;;;16.23;7.70;;;;;;;;;;4953113;28;20035;-85
2022/09/07 12:01:38;;;;;;;9.52;6.93;;;;;;;;;;4972220;28;20051;-88
2022/09/07 12:04:04;;;;;;;10.65;7.40;;;;;;;;;;4897436;29;20040;-76
2022/09/07 12:06:36;;;;;;;9.75;6.90;;;;;;;;;;4897466;29;20044;-77
2022/09/07 12:09:12;;;;;;;8.30;6.72;;;;;;;;;;4877257;29;20060;-79
2022/09/07 12:11:41;;;;;;;8.38;7.03;;;;;;;;;;4892985;29;20495;-83
2022/09/07 12:14:12;;;;;;;9.98;7.22;;;;;;;;;;4876011;29;20059;-83
2022/09/07 12:16:38;;;;;;;12.45;6.60;;;;;;;;;;4896997;29;20182;-81
2022/09/07 12:19:10;;;;;;;9.90;6.35;;;;;;;;;;4896449;29;20029;-81
2022/09/07 12:21:44;;;;;;;10.30;6.57;;;;;;;;;;4887718;29;20084;-78
2022/09/07 12:24:28;;;;;;;9.90;6.53;;;;;;;;;;4896313;29;20836;-85
2022/09/07 12:26:56;;;;;;;11.13;6.72;;;;;;;;;;4891938;29;20391;-85
2022/09/07 12:29:24;;;;;;;8.85;6.63;;;;;;;;;;4901446;29;20495;-86
2022/09/07 12:31:57;;;;;;;11.43;6.72;;;;;;;;;;4891033;29;20554;-92
2022/09/07 12:34:23;;;;;;;;;;;;;;;;;;4883404;29;20060;-83
2022/09/07 12:36:49;;;;;;;7.63;6.55;;;;;;;;;;4894678;29;19919;-84
2022/09/07 12:39:23;;;;;;;10.60;7.00;;;;;;;;;;4895774;29;20102;-90
2022/09/07 12:41:51;;;;;;;10.60;6.75;;;;;;;;;;4938383;29;20048;-85
2022/09/07 12:44:25;;;;;;;9.35;6.13;;;;;;;;;;4954807;28;20094;-82
2022/09/07 12:46:53;;;;;;;7.82;6.50;;;;;;;;;;4954648;28;20050;-90
2022/09/07 12:49:21;;;;;;;6.82;5.85;;;;;;;;;;4954272;28;20031;-83
2022/09/07 12:51:53;;;;;;;11.32;7.15;;;;;;;;;;4954920;28;20027;-90
2022/09/07 12:54:30;;;;;;;7.40;5.90;;;;;;;;;;4954251;28;20490;-87
2022/09/07 12:56:56;;;;;;;11.85;6.47;;;;;;;;;;4954626;28;20023;-86
2022/09/07 12:59:34;;;;;;;10.00;5.50;;;;;;;;;;4954397;28;20544;-90
2022/09/07 13:02:07;;;;;;;6.22;5.07;;;;;;;;;;4954447;28;20062;-88
2022/09/07 13:04:45;;;;;;;9.70;5.77;;;;;;;;;;4954469;28;20028;-77
2022/09/07 13:07:17;;;;;;;6.47;5.30;;;;;;;;;;4960097;28;20031;-87
2022/09/07 13:09:53;;;;;;;6.63;5.17;;;;;;;;;;4961057;28;20043;-91
2022/09/07 13:12:23;;;;;;;8.68;5.70;;;;;;;;;;4958226;28;20038;-82
2022/09/07 13:14:51;;;;;;;10.48;5.43;;;;;;;;;;4957714;28;20044;-90
2022/09/07 13:17:37;;;;;;;7.28;4.95;;;;;;;;;;4957956;28;20519;-90
2022/09/07 13:20:03;;;;;;;7.07;5.75;;;;;;;;;;4958000;28;20027;-90
2022/09/07 13:22:29;;;;;;;9.40;5.88;;;;;;;;;;4954477;28;20031;-78
2022/09/07 13:24:58;;;;;;;7.55;5.40;;;;;;;;;;4957723;28;20090;-75
2022/09/07 13:27:27;;;;;;;7.43;6.00;;;;;;;;;;4954398;28;20047;-81
2022/09/07 13:29:55;;;;;;;9.57;5.43;;;;;;;;;;4952412;28;20038;-73
2022/09/07 13:32:31;;;;;;;6.78;5.95;;;;;;;;;;4969281;28;20500;-89
2022/09/07 13:35:00;;;;;;;8.27;5.35;;;;;;;;;;4954062;28;20047;-84
2022/09/07 13:37:27;;;;;;;10.93;5.55;;;;;;;;;;4953326;28;20027;-85
2022/09/07 13:39:55;;;;;;;8.23;5.65;;;;;;;;;;4959937;28;20041;-79
2022/09/07 13:42:27;;;;;;;7.18;6.25;;;;;;;;;;4948358;28;20517;-86
2022/09/07 13:44:55;;;;;;;8.77;5.30;;;;;;;;;;4960389;28;20038;-85
2022/09/07 13:47:24;;;;;;;7.63;5.47;;;;;;;;;;4967012;28;20504;-85
2022/09/07 13:50:11;;;;;;;10.95;5.88;;;;;;;;;;4966340;28;20385;-87
2022/09/07 13:52:37;;;;;;;7.43;5.00;;;;;;;;;;4954559;28;20027;-75
2022/09/07 13:55:09;;;;;;;10.05;6.55;;;;;;;;;;4948568;28;20095;-88
2022/09/07 13:57:55;;;;;;;9.25;5.63;;;;;;;;;;4953458;28;20033;-89
2022/09/07 14:00:22;;;;;;;9.98;5.88;;;;;;;;;;4953885;28;20041;-82
2022/09/07 14:02:52;;;;;;;8.00;5.53;;;;;;;;;;4952174;28;20030;-83
2022/09/07 14:05:19;;;;;;;8.18;5.30;;;;;;;;;;4953070;28;20035;-82
2022/09/07 14:07:46;;;;;;;8.32;5.70;;;;;;;;;;4948128;28;20090;-82
2022/09/07 14:10:19;;;;;;;8.68;5.68;;;;;;;;;;4960956;28;20489;-84
2022/09/07 14:12:46;;;;;;;6.90;5.25;;;;;;;;;;4965241;28;20075;-81
2022/09/07 14:15:38;;;;;;;14.40;5.40;;;;;;;;;;4962910;28;20039;-85
2022/09/07 14:18:26;;;;;;;8.57;5.40;;;;;;;;;;4944269;28;20129;-85
2022/09/07 14:20:53;;;;;;;11.52;5.70;;;;;;;;;;4966180;28;20109;-84
2022/09/07 14:23:19;;;;;;;9.07;5.63;;;;;;;;;;4967046;28;20031;-86
2022/09/07 14:25:45;;;;;;;7.32;4.85;;;;;;;;;;4963035;28;20019;-86
2022/09/07 14:28:31;;;;;;;7.65;5.13;;;;;;;;;;4957912;28;20434;-82
2022/09/07 14:30:57;;;;;;;7.28;5.30;;;;;;;;;;4970223;28;20027;-86
2022/09/07 14:33:23;;;;;;;9.18;5.63;;;;;;;;;;4960551;28;20461;-75
2022/09/07 14:35:52;;;;;;;15.75;5.50;;;;;;;;;;4957353;28;20118;-85
2022/09/07 14:38:29;;;;;;;7.53;4.60;;;;;;;;;;4963871;28;20068;-87
2022/09/07 14:40:59;;;;;;;8.63;5.15;;;;;;;;;;4955618;28;20031;-87
2022/09/07 14:43:27;;;;;;;10.75;5.85;;;;;;;;;;4953002;29;20446;-87
2022/09/07 14:45:53;;;;;;;7.82;5.60;;;;;;;;;;4956428;28;20031;-88
2022/09/07 14:48:21;;;;;;;10.45;6.00;;;;;;;;;;4958772;28;20027;-87
2022/09/07 14:50:47;;;;;;;16.50;6.05;;;;;;;;;;4947223;28;20255;-84
2022/09/07 14:53:16;;;;;;;8.65;5.35;;;;;;;;;;4944984;28;20032;-81
2022/09/07 14:55:44;;;;;;;6.97;5.40;;;;;;;;;;4953996;28;20031;-81
2022/09/07 14:58:13;;;;;;;11.00;5.60;;;;;;;;;;4954979;28;20030;-85
2022/09/07 15:00:46;;;;;;;9.02;5.20;;;;;;;;;;4950268;28;20027;-88
2022/09/07 15:03:31;;;;;;;7.88;4.90;;;;;;;;;;4950205;28;20036;-80
2022/09/07 15:05:58;;;;;;;7.70;5.22;;;;;;;;;;4956501;28;20077;-88
2022/09/07 15:08:38;;;;;;;6.05;4.93;;;;;;;;;;4962190;28;20055;-88
2022/09/07 15:11:06;;;;;;;7.93;5.07;;;;;;;;;;4950494;28;20035;-88
2022/09/07 15:13:34;;;;;;;6.07;4.70;;;;;;;;;;4965859;28;20023;-89
2022/09/07 15:16:02;;;;;;;6.32;4.70;;;;;;;;;;4953655;29;20047;-90